• Join FlightAware (Why Join?)
  • Login
  • US Flag 
10:25PM EDT


 

Airport Tracker/Info


-or-


 

Live Flight TrackerFlight Track Log ✈ N69704 ✈ 24-Apr-2013 ✈ KTYR - KNQA

Flight Track Log - Related Links

Times and Time Zones

All times are in EDT time to prevent confusion due to time zone crossing. See the N69704 flight status page for this flight to view local times or setup timezone preferences in your user account.

Time Position Orientation Groundspeed Altitude Reporting Facility
EDT Latitude Longitude Course Direction KTS MPH feet Rate Location/Type
07:41PM 32.5021 -95.1135 52° Northeast  Level FlightAware Approximate
07:42PM 32.5317 -95.0691 52° Northeast  Level FlightAware Approximate
07:43PM 32.5585 -95.0221 56° Northeast  Level FlightAware Approximate
07:44PM 32.5851 -94.9751 56° Northeast  Level FlightAware Approximate
07:45PM 32.6117 -94.9279 56° Northeast  Level FlightAware Approximate
07:46PM 32.6383 -94.8808 56° Northeast  Level FlightAware Approximate
07:47PM 32.6648 -94.8336 56° Northeast  Level FlightAware Approximate
07:48PM 32.6914 -94.7864 56° Northeast  Level FlightAware Approximate
07:49PM 32.7179 -94.7392 56° Northeast  Level FlightAware Approximate
07:49PM 32.6500 -94.8081 56° Northeast 187 215 8,900  Level Fort Worth Center
07:50PM 32.7444 -94.6920 56° Northeast  Level FlightAware Approximate
07:50PM 32.6781 -94.7628 54° Northeast 187 215 8,900  Level Fort Worth Center
07:51PM 32.7709 -94.6447 56° Northeast  Level FlightAware Approximate
07:51PM 32.7147 -94.7172 46° Northeast 187 215 8,900  Level Fort Worth Center
07:52PM 32.7974 -94.5974 56° Northeast  Level FlightAware Approximate
07:52PM 32.7492 -94.6717 48° Northeast 182 209 8,900  Level Fort Worth Center
07:53PM 32.8238 -94.5500 56° Northeast  Level FlightAware Approximate
07:53PM 32.7753 -94.6189 60° Northeast 182 209 8,900  Level Fort Worth Center
07:54PM 32.8502 -94.5027 56° Northeast  Level FlightAware Approximate
07:54PM 32.7969 -94.5614 66° East 182 209 8,800  Level Fort Worth Center
07:55PM 32.8766 -94.4553 56° Northeast  Level FlightAware Approximate
07:55PM 32.8228 -94.5064 61° Northeast 182 209 8,800  Level Fort Worth Center
07:56PM 32.8508 -94.4533 58° Northeast 182 209 8,800  Level Fort Worth Center
07:57PM 32.8786 -94.4006 58° Northeast 182 209 8,800  Level Fort Worth Center
07:58PM 32.8983 -94.3431 68° East 182 209 8,900  Climbing Fort Worth Center
07:59PM 32.9261 -94.2900 58° Northeast 177 204 8,900  Level Fort Worth Center
08:00PM 32.9650 -94.2542 38° Northeast 177 204 8,900  Level Fort Worth Center
08:01PM 33.0017 -94.2181 40° Northeast 171 197 8,900 -60 Level Fort Worth Center
08:02PM 33.0317 -94.1675 55° Northeast 176 203 8,800 -60 Descending Fort Worth Center
08:03PM 33.0636 -94.1192 52° Northeast 181 208 8,800  Level Fort Worth Center
08:04PM 33.0981 -94.0758 46° Northeast 181 208 8,800  Level Fort Worth Center
08:05PM 33.1281 -94.0275 53° Northeast 181 208 8,800  Level Fort Worth Center
08:06PM 33.1494 -93.9697 66° East 181 208 8,800 -60 Level Fort Worth Center
08:07PM 33.1708 -93.9117 66° East 181 208 8,700  Descending Fort Worth Center
08:08PM 33.2008 -93.8658 52° Northeast 181 208 8,800 60 Climbing Fort Worth Center
08:09PM 33.2311 -93.8250 48° Northeast 170 196 8,900 60 Climbing Fort Worth Center
08:10PM 33.2611 -93.7792 52° Northeast 165 190 9,000  Climbing Fort Worth Center
08:11PM 33.2889 -93.7331 54° Northeast 165 190 9,000  Level Fort Worth Center
08:12PM 33.3186 -93.6847 54° Northeast 171 197 9,000  Level Fort Worth Center
08:13PM 33.3464 -93.6314 58° Northeast 176 203 9,000 -60 Level Fort Worth Center
08:14PM 33.3783 -93.5828 52° Northeast 176 203 8,900  Descending Fort Worth Center
08:15PM 33.4103 -93.5342 52° Northeast 176 203 9,000  Climbing Fort Worth Center
08:16PM 33.4356 -93.4806 61° Northeast 176 203 9,000  Level Fort Worth Center
08:17PM 33.4633 -93.4347 54° Northeast 176 203 9,000  Level Fort Worth Center
08:18PM 33.4931 -93.3833 55° Northeast 176 203 9,000  Level Fort Worth Center
08:19PM 33.5206 -93.3322 57° Northeast 176 203 9,000  Level Fort Worth Center
08:20PM 33.5439 -93.2789 62° Northeast 176 203 9,000  Level Fort Worth Center
08:22PM 33.5894 -93.2000 55° Northeast 187 215 9,000  Level Memphis Center
08:23PM 33.6178 -93.1486 56° Northeast 187 215 9,000  Level Memphis Center
08:24PM 33.6461 -93.0944 58° Northeast 187 215 9,000  Level Memphis Center
08:25PM 33.6742 -93.0481 54° Northeast 187 215 9,000  Level Memphis Center
08:26PM 33.7044 -92.9989 53° Northeast 187 215 9,000  Level Memphis Center
08:27PM 33.7308 -92.9422 61° Northeast 187 215 9,000  Level Memphis Center
08:28PM 33.7589 -92.8908 57° Northeast 187 215 9,000  Level Memphis Center
08:29PM 33.7850 -92.8389 59° Northeast 182 209 9,000  Level Memphis Center
08:30PM 33.8131 -92.7897 56° Northeast 182 209 9,000  Level Memphis Center
08:31PM 33.8392 -92.7356 60° Northeast 182 209 9,100  Climbing Memphis Center
08:32PM 33.8653 -92.6836 59° Northeast 182 209 9,100  Level Memphis Center
08:33PM 33.8933 -92.6294 58° Northeast 177 204 9,100 -60 Level Memphis Center
08:34PM 33.9172 -92.5775 61° Northeast 177 204 9,000 -120 Descending Memphis Center
08:35PM 33.9494 -92.5281 52° Northeast 177 204 8,900  Descending Memphis Center
08:36PM 33.9794 -92.4839 51° Northeast 177 204 9,000  Climbing Memphis Center
08:37PM 34.0072 -92.4344 56° Northeast 177 204 9,000  Level Memphis Center
08:38PM 34.0414 -92.3900 47° Northeast 172 198 9,000  Level Memphis Center
08:38PM 34.0522 -92.3653 62° Northeast 176 203 9,000  Level Memphis Center
08:39PM 34.0736 -92.3356 49° Northeast 172 198 9,000  Level Memphis Center
08:40PM 34.1017 -92.2861 56° Northeast 177 204 9,000  Level Memphis Center
08:41PM 34.1253 -92.2314 62° Northeast 177 204 9,000  Level Memphis Center
08:42PM 34.1533 -92.1819 56° Northeast 177 204 9,000  Level Memphis Center
08:43PM 34.1853 -92.1247 56° Northeast 174 200 9,000 -60 Level Memphis Center
08:44PM 34.2067 -92.0850 57° Northeast 171 197 8,900  Descending Memphis Center
08:44PM 34.2092 -92.0700 79° East 177 204 9,000  Climbing Memphis Center
08:45PM 34.2325 -92.0328 53° Northeast 171 197 8,900 -120 Descending Memphis Center
08:45PM 34.2347 -92.0228 75° East 180 207 8,900  Level Memphis Center
08:46PM 34.2603 -91.9831 52° Northeast 171 197 8,900  Level Memphis Center
08:46PM 34.2667 -91.9706 58° Northeast 176 203 8,900 60 Level Memphis Center
08:47PM 34.2900 -91.9333 53° Northeast 166 191 9,000 120 Climbing Memphis Center
08:47PM 34.2967 -91.9158 65° Northeast 177 204 9,100 60 Climbing Memphis Center
08:48PM 34.3136 -91.8836 58° Northeast 178 205 9,100  Level Memphis Center
08:48PM 34.3222 -91.8636 62° Northeast 182 209 9,100  Level Memphis Center
08:49PM 34.3394 -91.8286 59° Northeast 188 216 9,100  Level Memphis Center
08:50PM 34.3692 -91.7764 55° Northeast 193 222 9,100 -60 Level Memphis Center
08:51PM 34.3950 -91.7189 61° Northeast 187 215 9,000  Descending Memphis Center
08:52PM 34.4183 -91.6639 63° Northeast 182 209 9,100  Climbing Memphis Center
08:53PM 34.4442 -91.6064 61° Northeast 177 204 9,000 -60 Descending Memphis Center
08:54PM 34.4739 -91.5539 56° Northeast 182 209 9,000 -60 Level Memphis Center
08:55PM 34.5033 -91.5039 54° Northeast 187 215 8,900 -60 Descending Memphis Center
08:56PM 34.5247 -91.4561 61° Northeast 187 215 8,900  Level Memphis Center
08:57PM 34.5544 -91.4061 54° Northeast 187 215 9,000  Climbing Memphis Center
08:58PM 34.5778 -91.3536 62° Northeast 187 215 9,000  Level Memphis Center
08:59PM 34.6053 -91.2983 59° Northeast 187 215 9,000  Level Memphis Center
09:00PM 34.6369 -91.2506 51° Northeast 182 209 9,000 -180 Level Memphis Center
09:01PM 34.6686 -91.2056 49° Northeast 182 209 8,700 -300 Descending Memphis Center
09:02PM 34.7003 -91.1453 57° Northeast 187 215 8,400 -360 Descending Memphis Center
09:03PM 34.7297 -91.0875 58° Northeast 187 215 8,000 -420 Descending Memphis Center
09:04PM 34.7594 -91.0344 56° Northeast 187 215 7,600 -420 Descending Memphis Center
09:05PM 34.7847 -90.9817 60° Northeast 187 215 7,200 -480 Descending Memphis Center
09:06PM 34.8161 -90.9289 54° Northeast 187 215 6,700 -600 Descending Memphis Center
09:07PM 34.8456 -90.8783 55° Northeast 187 215 6,100 -420 Descending Memphis Center
09:08PM 34.8731 -90.8306 55° Northeast 179 206 5,900  Descending Memphis Center
09:09PM 34.9044 -90.7825 51° Northeast 172 198 6,100 60 Climbing Memphis Center
09:10PM 34.9256 -90.7394 59° Northeast 167 192 6,100 -60 Level Memphis Center
09:11PM 34.9486 -90.6967 57° Northeast 167 192 6,000 -60 Descending Memphis Center
09:12PM 34.9717 -90.6486 60° Northeast 167 192 6,000  Level Memphis Center
09:13PM 34.9947 -90.6006 60° Northeast 162 186 6,000 -60 Level Memphis Center
09:14PM 35.0197 -90.5522 58° Northeast 167 192 5,900 -60 Descending Memphis Center
09:15PM 35.0406 -90.5067 61° Northeast 162 186 5,900  Level Memphis Center
09:16PM 35.0658 -90.4586 57° Northeast 162 186 6,000  Climbing Memphis Center
09:17PM 35.0886 -90.4053 62° Northeast 162 186 6,000  Level Memphis Center
09:18PM 35.1117 -90.3544 61° Northeast 162 186 6,000  Level Memphis Center
09:19PM 35.1325 -90.3089 61° Northeast 162 186 6,000 -60 Level Memphis Center
09:20PM 35.1597 -90.2606 55° Northeast 162 186 5,900 -120 Descending Memphis Center
09:22PM 35.1921 -90.1852 62° Northeast  Level FlightAware Approximate
09:29PM 35.3500 -89.8667 58° Northeast  Level FlightAware Approximate
09:30PM 35.3566 -89.8704 58° Northeast  Level Estimated
09:31PM 35.3566 -89.8704 58° Northeast  Level Estimated
09:32PM 35.3566 -89.8704 58° Northeast  Level Estimated
09:33PM 35.3566 -89.8704 58° Northeast  Level Estimated
09:34PM 35.3566 -89.8704 58° Northeast  Level Estimated
09:35PM 35.3566 -89.8704 58° Northeast  Level Estimated
09:36PM 35.3566 -89.8704 58° Northeast  Level Estimated
09:37PM 35.3566 -89.8704 58° Northeast  Level Estimated
09:38PM 35.3566 -89.8704 58° Northeast  Level Estimated